Time;durP1;ratioP1;P1;durP2;ratioP2;P2;SDS_P1;SDS_P2;PMS_P1;PMS_P2;Temp;Humidity;BMP_temperature;BMP_pressure;BME280_temperature;BME280_humidity;BME280_pressure;Samples;Min_cycle;Max_cycle;Signal;HPM_P1;HPM_P2
2023/01/21 00:02:04;;;;;;;39.45;20.58;;;;;;;1.64;47.56;102743.19;7394073;19;19995;-70
2023/01/21 00:04:33;;;;;;;42.97;22.42;;;;;;;1.82;46.91;102741.47;7393765;19;20022;-70
2023/01/21 00:07:01;;;;;;;42.72;22.50;;;;;;;1.73;47.29;102749.06;7393369;19;19998;-70
2023/01/21 00:09:27;;;;;;;43.50;22.58;;;;;;;1.85;46.76;102754.47;7391027;19;20026;-69
2023/01/21 00:11:52;;;;;;;41.15;21.73;;;;;;;1.82;47.24;102757.63;7394296;19;20037;-70
2023/01/21 00:14:18;;;;;;;43.55;22.08;;;;;;;2.09;46.83;102751.75;7391457;19;19999;-70
2023/01/21 00:16:44;;;;;;;43.33;21.55;;;;;;;2.36;46.35;102757.47;7392680;19;19998;-70
2023/01/21 00:19:10;;;;;;;44.78;22.27;;;;;;;2.48;46.15;102757.44;7389830;19;19998;-70
2023/01/21 00:21:35;;;;;;;44.40;22.65;;;;;;;2.59;45.68;102770.88;7392316;19;20006;-71
2023/01/21 00:24:01;;;;;;;42.35;22.08;;;;;;;2.59;45.94;102765.47;7393049;19;20006;-71
2023/01/21 00:26:34;;;;;;;40.45;21.58;;;;;;;2.35;46.50;102774.66;7393037;19;19998;-72
2023/01/21 00:28:59;;;;;;;41.35;21.17;;;;;;;2.54;46.08;102773.47;7390258;19;20018;-75
2023/01/21 00:31:26;;;;;;;44.92;23.13;;;;;;;2.52;46.08;102772.09;7393468;19;20429;-81
2023/01/21 00:33:52;;;;;;;42.17;22.13;;;;;;;2.29;46.75;102783.72;7393611;19;20073;-80
2023/01/21 00:36:18;;;;;;;43.03;22.65;;;;;;;2.17;47.25;102787.25;7391665;19;20523;-80
2023/01/21 00:38:47;;;;;;;46.10;23.65;;;;;;;2.22;47.23;102792.75;7391846;19;20003;-79
2023/01/21 00:41:13;;;;;;;44.00;21.30;;;;;;;2.43;47.12;102795.88;7392147;19;20010;-82
2023/01/21 00:43:40;;;;;;;41.72;22.13;;;;;;;2.75;46.50;102801.69;7391635;19;19995;-80
2023/01/21 00:46:07;;;;;;;39.75;21.08;;;;;;;2.84;46.27;102812.91;7392233;19;20475;-72
2023/01/21 00:48:33;;;;;;;38.25;20.85;;;;;;;2.94;46.33;102813.09;7392194;19;20009;-73
2023/01/21 00:50:59;;;;;;;42.20;20.45;;;;;;;3.08;46.21;102818.22;7393000;19;20019;-69
2023/01/21 00:53:26;;;;;;;42.40;21.23;;;;;;;3.22;46.00;102813.34;7392918;19;19998;-69
2023/01/21 00:55:52;;;;;;;44.95;22.17;;;;;;;3.25;45.53;102819.09;7392141;19;19995;-69
2023/01/21 00:58:18;;;;;;;42.33;20.85;;;;;;;3.05;45.66;102830.34;7390516;19;20029;-73
2023/01/21 01:00:44;;;;;;;42.85;22.67;;;;;;;3.06;46.22;102831.13;7390985;19;20417;-75
2023/01/21 01:03:10;;;;;;;43.13;21.80;;;;;;;3.23;45.52;102825.78;7390205;19;20002;-78
2023/01/21 01:05:36;;;;;;;45.42;20.67;;;;;;;3.13;45.91;102827.22;7389921;19;20101;-73
2023/01/21 01:08:02;;;;;;;44.75;22.40;;;;;;;3.23;45.76;102825.78;7390601;19;20029;-72
2023/01/21 01:10:28;;;;;;;42.38;21.85;;;;;;;3.18;45.78;102834.59;7391631;19;19995;-72
2023/01/21 01:12:53;;;;;;;41.30;21.42;;;;;;;2.92;46.29;102841.41;7391449;19;20449;-71
2023/01/21 01:15:19;;;;;;;41.70;21.48;;;;;;;2.97;46.56;102838.81;7392075;19;20013;-71
2023/01/21 01:17:45;;;;;;;46.55;21.83;;;;;;;3.04;46.34;102854.84;7391438;19;20019;-71
2023/01/21 01:20:11;;;;;;;40.28;20.90;;;;;;;2.75;47.00;102868.25;7391046;19;19999;-71
2023/01/21 01:22:37;;;;;;;42.38;21.40;;;;;;;2.94;46.77;102860.84;7392519;19;20050;-71
2023/01/21 01:25:02;;;;;;;40.10;20.77;;;;;;;3.11;46.56;102866.31;7391387;19;20008;-71
2023/01/21 01:27:29;;;;;;;41.28;20.90;;;;;;;3.32;45.88;102867.53;7390851;19;20038;-71
2023/01/21 01:29:55;;;;;;;40.17;20.58;;;;;;;3.12;46.44;102859.88;7388804;19;20006;-71
2023/01/21 01:32:21;;;;;;;44.13;20.08;;;;;;;3.05;46.93;102861.88;7391417;19;20535;-71
2023/01/21 01:34:46;;;;;;;42.53;20.63;;;;;;;3.22;46.64;102872.72;7391579;19;19999;-71
2023/01/21 01:37:12;;;;;;;38.22;17.77;;;;;;;3.34;46.46;102879.72;7390109;19;20066;-70
2023/01/21 01:39:38;;;;;;;40.55;20.00;;;;;;;3.56;45.98;102870.16;7389382;19;20447;-71
2023/01/21 01:42:04;;;;;;;40.10;19.85;;;;;;;3.63;45.68;102876.22;7389238;19;20012;-71
2023/01/21 01:44:56;;;;;;;41.92;19.73;;;;;;;3.31;46.45;102882.09;7389620;19;20412;-71
2023/01/21 01:47:28;;;;;;;41.17;20.23;;;;;;;3.32;46.42;102887.25;7391118;19;20029;-70
2023/01/21 01:49:55;;;;;;;41.83;21.13;;;;;;;3.25;46.59;102885.72;7394288;19;20058;-70
2023/01/21 01:52:22;;;;;;;41.90;20.65;;;;;;;3.08;47.18;102888.38;7398614;19;20475;-71
2023/01/21 01:54:52;;;;;;;42.72;20.15;;;;;;;3.33;46.79;102893.47;7396652;19;20027;-70
2023/01/21 01:57:22;;;;;;;37.97;18.58;;;;;;;3.57;46.27;102896.09;7397322;19;20001;-70
2023/01/21 01:59:49;;;;;;;37.65;18.67;;;;;;;3.60;46.29;102901.81;7394947;19;19998;-70
2023/01/21 02:02:18;;;;;;;39.92;19.95;;;;;;;3.76;45.76;102899.41;7398720;19;20006;-70
2023/01/21 02:04:55;;;;;;;36.17;18.50;;;;;;;3.79;45.97;102904.34;7397820;19;20003;-68
2023/01/21 02:07:23;;;;;;;38.97;18.95;;;;;;;3.88;45.60;102902.84;7397778;19;20058;-69
2023/01/21 02:09:51;;;;;;;37.72;18.70;;;;;;;3.89;45.61;102909.91;7395544;19;19998;-69
2023/01/21 02:12:17;;;;;;;40.92;20.20;;;;;;;3.83;45.80;102916.28;7396576;19;20365;-69
2023/01/21 02:14:45;;;;;;;37.35;19.58;;;;;;;3.86;45.70;102911.19;7395921;19;19990;-69
2023/01/21 02:17:36;;;;;;;35.20;19.48;;;;;;;3.80;45.79;102911.34;7396515;19;19994;-69
2023/01/21 02:20:39;;;;;;;36.85;18.40;;;;;;;3.40;46.83;102907.63;7395471;19;20034;-69
2023/01/21 02:23:35;;;;;;;35.55;18.40;;;;;;;3.52;46.80;102913.03;7395829;19;19994;-69
2023/01/21 02:26:22;;;;;;;36.67;17.60;;;;;;;3.67;46.26;102912.47;7396987;19;20002;-78
2023/01/21 02:29:07;;;;;;;36.38;18.60;;;;;;;3.55;46.68;102909.81;7395043;19;20018;-81
2023/01/21 02:31:54;;;;;;;43.35;20.08;;;;;;;3.51;46.82;102906.78;7397292;19;20364;-81
2023/01/21 02:34:50;;;;;;;32.92;16.95;;;;;;;3.48;47.00;102909.16;7396392;19;20500;-79
2023/01/21 02:37:27;;;;;;;33.80;17.58;;;;;;;3.66;46.72;102902.75;7396543;19;19999;-75
2023/01/21 02:40:02;;;;;;;36.22;18.23;;;;;;;3.51;46.79;102908.69;7392825;19;20002;-71
2023/01/21 02:42:45;;;;;;;31.88;16.58;;;;;;;3.44;47.25;102905.31;7397162;19;20455;-75
2023/01/21 02:45:23;;;;;;;36.00;18.13;;;;;;;3.66;46.96;102911.66;7396916;19;20028;-75
2023/01/21 02:48:04;;;;;;;36.90;17.83;;;;;;;3.58;46.79;102913.94;7396501;19;20006;-75
2023/01/21 02:50:51;;;;;;;38.22;18.05;;;;;;;3.70;46.66;102918.22;7397052;19;19995;-78
2023/01/21 02:53:27;;;;;;;36.08;18.50;;;;;;;3.87;46.27;102910.16;7397095;19;20011;-80
2023/01/21 02:55:54;;;;;;;34.45;16.98;;;;;;;3.75;46.51;102919.38;7396615;19;20016;-80
2023/01/21 02:58:31;;;;;;;35.50;17.50;;;;;;;3.78;46.52;102922.41;7395134;19;20342;-80
2023/01/21 03:01:15;;;;;;;36.78;17.30;;;;;;;3.86;46.37;102919.31;7394321;19;19999;-80
2023/01/21 03:03:56;;;;;;;35.60;17.98;;;;;;;3.71;46.64;102924.44;7396791;19;19998;-80
2023/01/21 03:06:56;;;;;;;39.15;19.05;;;;;;;3.69;46.59;102932.78;7395865;19;19995;-80
2023/01/21 03:09:25;;;;;;;37.53;18.48;;;;;;;3.76;46.71;102929.13;7393584;19;20002;-80
2023/01/21 03:11:59;;;;;;;36.45;18.05;;;;;;;3.89;46.34;102926.94;7395277;19;20006;-80
2023/01/21 03:17:34;;;;;;;37.47;18.17;;;;;;;3.72;46.87;102934.19;7395450;19;20065;-81
2023/01/21 03:20:18;;;;;;;38.90;18.27;;;;;;;3.95;46.36;102935.94;7390912;19;20018;-75
2023/01/21 03:22:46;;;;;;;34.80;17.83;;;;;;;4.04;45.86;102939.88;7395608;19;20020;-75
2023/01/21 03:25:13;;;;;;;36.22;17.75;;;;;;;4.03;45.92;102943.66;7393001;19;19994;-76
2023/01/21 03:27:43;;;;;;;35.30;19.02;;;;;;;3.83;46.21;102937.88;7395001;19;20079;-75
2023/01/21 03:30:16;;;;;;;36.45;18.45;;;;;;;3.86;46.26;102938.22;7391143;19;20082;-69
2023/01/21 03:32:47;;;;;;;32.90;17.50;;;;;;;3.73;46.52;102938.53;7395593;19;20019;-69
2023/01/21 03:35:17;;;;;;;43.97;19.33;;;;;;;3.65;46.96;102936.22;7392821;19;20003;-70
2023/01/21 03:37:54;;;;;;;40.08;20.77;;;;;;;3.30;47.54;102934.41;7394808;19;20014;-68
2023/01/21 03:40:22;;;;;;;36.67;18.00;;;;;;;3.33;47.64;102934.75;7390377;19;20341;-70
2023/01/21 03:42:49;;;;;;;39.65;19.48;;;;;;;3.58;46.95;102932.84;7393003;19;20031;-66
2023/01/21 03:45:21;;;;;;;35.47;17.77;;;;;;;3.40;47.11;102939.22;7393258;19;20006;-67
2023/01/21 03:47:55;;;;;;;38.78;19.20;;;;;;;3.23;47.26;102939.97;7394034;19;19995;-64
2023/01/21 03:50:35;;;;;;;38.85;20.13;;;;;;;2.94;47.94;102934.50;7391830;19;20007;-65
2023/01/21 03:53:01;;;;;;;36.42;18.40;;;;;;;2.87;47.98;102941.91;7393533;19;20451;-65
2023/01/21 03:55:27;;;;;;;35.58;18.55;;;;;;;2.80;48.16;102930.41;7392028;19;20043;-65
2023/01/21 03:57:52;;;;;;;40.38;20.23;;;;;;;2.59;48.43;102932.66;7393487;19;20003;-65
2023/01/21 04:00:18;;;;;;;42.10;20.38;;;;;;;2.63;48.48;102941.09;7390284;19;20340;-68
2023/01/21 04:02:44;;;;;;;34.20;18.38;;;;;;;2.66;48.36;102950.59;7391993;19;20006;-65
2023/01/21 04:05:10;;;;;;;38.05;19.00;;;;;;;2.60;48.08;102950.47;7393576;19;20341;-66
2023/01/21 04:07:36;;;;;;;40.78;20.20;;;;;;;2.55;48.43;102938.75;7393003;19;20401;-65
2023/01/21 04:10:02;;;;;;;41.53;19.95;;;;;;;2.51;48.32;102948.38;7390493;19;20177;-66
2023/01/21 04:12:28;;;;;;;39.40;20.00;;;;;;;2.55;48.21;102946.81;7392624;19;20014;-67
2023/01/21 04:14:53;;;;;;;38.38;20.20;;;;;;;2.60;48.03;102945.09;7393740;19;20002;-67
2023/01/21 04:17:19;;;;;;;39.85;19.70;;;;;;;2.79;47.71;102947.66;7391384;19;20447;-67
2023/01/21 04:19:45;;;;;;;41.70;20.45;;;;;;;2.57;48.15;102948.25;7391624;19;19999;-67
2023/01/21 04:22:11;;;;;;;43.53;21.05;;;;;;;2.54;48.11;102956.81;7391314;19;20006;-67
2023/01/21 04:24:36;;;;;;;40.10;19.10;;;;;;;2.64;47.77;102964.31;7393013;19;20034;-66
2023/01/21 04:27:02;;;;;;;40.92;19.95;;;;;;;2.63;47.83;102967.25;7392017;19;19998;-68
2023/01/21 04:29:28;;;;;;;44.38;20.73;;;;;;;2.78;47.65;102967.59;7390102;19;20463;-66
2023/01/21 04:31:54;;;;;;;36.05;18.52;;;;;;;2.89;47.38;102977.56;7393220;19;20328;-66
2023/01/21 04:34:20;;;;;;;37.72;18.88;;;;;;;2.78;47.72;102970.28;7392861;19;20018;-65
2023/01/21 04:36:45;;;;;;;40.08;20.25;;;;;;;3.09;47.16;102981.78;7392729;19;19999;-63
2023/01/21 04:39:14;;;;;;;41.38;19.50;;;;;;;3.24;46.76;102973.19;7391348;19;20447;-66
2023/01/21 04:41:40;;;;;;;40.50;19.85;;;;;;;3.16;47.04;102980.56;7388908;19;19998;-71
2023/01/21 04:44:06;;;;;;;43.50;21.17;;;;;;;3.31;46.89;102979.25;7392734;19;20006;-70
2023/01/21 04:46:31;;;;;;;44.85;21.70;;;;;;;3.32;46.86;102973.63;7392349;19;20450;-70
2023/01/21 04:48:57;;;;;;;41.90;21.88;;;;;;;3.27;46.99;102973.53;7390690;19;19994;-70
2023/01/21 04:51:23;;;;;;;43.75;21.88;;;;;;;3.29;46.99;102984.09;7392651;19;20006;-69
2023/01/21 04:53:48;;;;;;;47.45;24.05;;;;;;;3.24;47.26;102983.97;7392035;19;19999;-67
2023/01/21 04:56:14;;;;;;;48.58;22.52;;;;;;;3.26;47.15;102987.25;7391809;19;20321;-60
2023/01/21 04:58:40;;;;;;;41.80;21.40;;;;;;;3.33;47.15;102993.34;7390790;19;20365;-60
2023/01/21 05:01:06;;;;;;;43.85;22.05;;;;;;;3.43;47.05;102998.16;7391226;19;20006;-60
2023/01/21 05:03:32;;;;;;;47.90;22.27;;;;;;;3.51;46.91;102995.09;7390149;19;19994;-69
2023/01/21 05:05:57;;;;;;;45.10;23.23;;;;;;;3.41;46.84;103005.66;7390211;19;19995;-67
2023/01/21 05:08:23;;;;;;;45.47;21.08;;;;;;;3.35;47.32;103007.41;7391011;19;20001;-67
2023/01/21 05:10:49;;;;;;;40.22;19.65;;;;;;;3.32;47.28;103018.72;7392014;19;19999;-67
2023/01/21 05:13:15;;;;;;;42.25;20.20;;;;;;;3.35;47.32;103018.22;7390790;19;20412;-67
2023/01/21 05:15:40;;;;;;;39.83;20.10;;;;;;;3.31;47.38;103023.25;7391748;19;20078;-67
2023/01/21 05:18:06;;;;;;;37.33;18.73;;;;;;;3.30;47.32;103021.63;7390508;19;20128;-67
2023/01/21 05:20:32;;;;;;;40.38;19.17;;;;;;;3.24;47.55;103027.97;7389968;19;20023;-67
2023/01/21 05:22:58;;;;;;;41.67;19.58;;;;;;;3.21;47.47;103023.03;7390429;19;20462;-67
2023/01/21 05:25:23;;;;;;;39.47;18.75;;;;;;;3.30;47.53;103032.44;7389330;19;20036;-67
2023/01/21 05:27:51;;;;;;;40.92;19.95;;;;;;;3.30;47.26;103037.84;7390220;19;19995;-66
2023/01/21 05:30:17;;;;;;;39.10;18.90;;;;;;;3.15;47.40;103040.19;7388836;19;20019;-71
2023/01/21 05:32:43;;;;;;;40.28;19.60;;;;;;;3.16;47.61;103047.22;7390776;19;20467;-72
2023/01/21 05:35:10;;;;;;;37.58;19.25;;;;;;;3.27;47.43;103049.09;7391202;19;20015;-73
2023/01/21 05:37:36;;;;;;;41.67;20.10;;;;;;;3.23;47.20;103053.31;7387958;19;20078;-72
2023/01/21 05:40:02;;;;;;;41.42;19.60;;;;;;;2.96;47.73;103053.78;7388935;19;20007;-72
2023/01/21 05:42:28;;;;;;;37.40;19.20;;;;;;;2.99;48.25;103057.91;7390741;19;20237;-70
2023/01/21 05:44:54;;;;;;;37.53;19.02;;;;;;;2.97;47.83;103060.84;7390973;19;20009;-70
2023/01/21 05:47:19;;;;;;;44.22;19.02;;;;;;;2.94;48.13;103061.31;7390017;19;20550;-66
2023/01/21 05:49:45;;;;;;;39.70;19.45;;;;;;;3.20;47.90;103059.19;7389406;19;20031;-66
2023/01/21 05:52:11;;;;;;;38.42;19.50;;;;;;;3.41;47.40;103055.06;7389988;19;19998;-68
2023/01/21 05:54:37;;;;;;;44.40;20.15;;;;;;;3.32;47.13;103073.50;7390808;19;20364;-69
2023/01/21 05:57:02;;;;;;;39.30;18.92;;;;;;;3.05;47.88;103077.72;7389394;19;20009;-70
2023/01/21 05:59:28;;;;;;;41.42;20.48;;;;;;;3.31;47.68;103071.84;7389481;19;20007;-69
2023/01/21 06:01:54;;;;;;;43.47;20.35;;;;;;;3.37;47.45;103075.50;7388621;19;19999;-67
2023/01/21 06:04:20;;;;;;;40.15;19.80;;;;;;;3.53;47.23;103084.78;7390305;19;20087;-67
2023/01/21 06:06:45;;;;;;;43.58;19.90;;;;;;;3.45;47.21;103083.28;7389941;19;20023;-68
2023/01/21 06:09:11;;;;;;;38.30;18.80;;;;;;;3.31;47.40;103074.56;7387277;19;20012;-67
2023/01/21 06:11:43;;;;;;;37.17;19.73;;;;;;;3.39;47.44;103086.06;7389939;19;20035;-67
2023/01/21 06:14:11;;;;;;;41.53;20.25;;;;;;;3.52;47.41;103088.56;7389065;19;20082;-66
2023/01/21 06:16:36;;;;;;;39.75;20.08;;;;;;;3.71;46.95;103097.31;7390024;19;19998;-68
2023/01/21 06:19:02;;;;;;;38.47;19.27;;;;;;;3.87;46.51;103099.28;7388342;19;20033;-67
2023/01/21 06:21:28;;;;;;;36.83;18.77;;;;;;;3.80;46.50;103101.28;7387861;19;20002;-67
2023/01/21 06:23:54;;;;;;;41.85;20.63;;;;;;;3.59;47.04;103097.34;7389463;19;20003;-65
2023/01/21 06:26:19;;;;;;;38.67;20.38;;;;;;;3.50;47.46;103096.88;7389722;19;20006;-67
2023/01/21 06:28:45;;;;;;;37.88;19.98;;;;;;;3.71;47.07;103098.13;7387614;19;20020;-66
2023/01/21 06:31:11;;;;;;;42.03;20.95;;;;;;;3.66;47.19;103102.63;7389098;19;20006;-67
2023/01/21 06:33:37;;;;;;;38.78;19.98;;;;;;;3.81;46.78;103105.63;7386019;19;20006;-70
2023/01/21 06:36:03;;;;;;;41.72;20.02;;;;;;;3.69;47.08;103105.66;7392489;19;20539;-69
2023/01/21 06:38:28;;;;;;;43.53;21.20;;;;;;;3.64;47.44;103105.53;7390908;19;20052;-70
2023/01/21 06:40:54;;;;;;;40.97;20.73;;;;;;;3.71;47.15;103106.22;7392459;19;20012;-68
2023/01/21 06:43:20;;;;;;;40.78;19.63;;;;;;;3.74;47.19;103107.66;7395544;19;20007;-69
2023/01/21 06:45:46;;;;;;;41.28;19.90;;;;;;;3.77;46.93;103111.75;7396701;19;20214;-68
2023/01/21 06:48:11;;;;;;;40.90;19.95;;;;;;;3.75;47.08;103111.97;7395281;19;20003;-68
2023/01/21 06:50:37;;;;;;;43.97;21.42;;;;;;;3.83;47.08;103117.00;7396094;19;20017;-66
2023/01/21 06:53:03;;;;;;;38.03;19.08;;;;;;;3.83;47.05;103117.00;7396350;19;20438;-67
2023/01/21 06:55:29;;;;;;;40.88;19.85;;;;;;;3.89;46.99;103121.47;7396251;19;20066;-68
2023/01/21 06:57:54;;;;;;;40.38;20.88;;;;;;;3.99;46.54;103125.44;7395082;19;20006;-68
2023/01/21 07:00:20;;;;;;;41.55;19.73;;;;;;;3.92;46.87;103128.28;7391848;19;20379;-67
2023/01/21 07:02:46;;;;;;;35.83;18.85;;;;;;;3.98;46.79;103135.41;7395321;19;20491;-68
2023/01/21 07:05:13;;;;;;;38.63;19.45;;;;;;;3.97;47.03;103139.19;7396072;19;20010;-68
2023/01/21 07:07:39;;;;;;;35.58;18.58;;;;;;;3.98;46.83;103142.72;7394703;19;20006;-68
2023/01/21 07:10:05;;;;;;;37.53;19.42;;;;;;;3.86;47.03;103138.16;7393926;19;20020;-68
2023/01/21 07:12:31;;;;;;;34.40;18.52;;;;;;;3.94;46.88;103147.78;7395783;19;19994;-68
2023/01/21 07:14:57;;;;;;;37.08;18.95;;;;;;;3.88;47.33;103157.63;7395919;19;20344;-67
2023/01/21 07:17:22;;;;;;;35.38;18.30;;;;;;;4.09;46.53;103153.50;7394588;19;20352;-67
2023/01/21 07:19:48;;;;;;;37.28;18.25;;;;;;;4.03;46.96;103154.44;7393497;19;20357;-67
2023/01/21 07:22:14;;;;;;;36.72;17.50;;;;;;;4.00;46.91;103162.22;7393198;19;20029;-68
2023/01/21 07:24:40;;;;;;;36.97;18.23;;;;;;;3.83;47.20;103157.53;7395275;19;19998;-68
2023/01/21 07:27:06;;;;;;;37.78;19.30;;;;;;;3.76;47.49;103164.16;7394247;19;20376;-68
2023/01/21 07:29:31;;;;;;;36.97;19.50;;;;;;;3.84;47.12;103169.19;7392554;19;20003;-68
2023/01/21 07:31:57;;;;;;;37.70;19.70;;;;;;;3.80;47.43;103171.50;7395108;19;20126;-65
2023/01/21 07:34:23;;;;;;;37.90;19.27;;;;;;;3.97;47.10;103171.63;7394417;19;19987;-65
2023/01/21 07:36:49;;;;;;;35.65;18.00;;;;;;;4.10;46.86;103170.53;7393925;19;20003;-65
2023/01/21 07:39:14;;;;;;;39.33;18.08;;;;;;;3.98;46.82;103167.03;7392970;19;19994;-65
2023/01/21 07:41:40;;;;;;;40.30;19.60;;;;;;;3.90;47.18;103177.16;7393023;19;20334;-67
2023/01/21 07:44:07;;;;;;;40.42;19.75;;;;;;;3.78;47.43;103176.34;7394364;19;20005;-69
2023/01/21 07:46:33;;;;;;;39.40;19.50;;;;;;;3.76;47.71;103186.56;7394091;19;20452;-66
2023/01/21 07:48:59;;;;;;;37.20;18.88;;;;;;;3.74;47.57;103182.44;7392640;19;19995;-66
2023/01/21 07:51:25;;;;;;;38.03;19.30;;;;;;;3.73;47.72;103188.91;7394683;19;20002;-68
2023/01/21 07:53:51;;;;;;;38.13;19.20;;;;;;;3.86;47.28;103188.69;7394343;19;20030;-69
2023/01/21 07:56:17;;;;;;;37.15;18.85;;;;;;;3.85;47.30;103184.31;7394494;19;20002;-69
2023/01/21 07:58:43;;;;;;;37.22;18.58;;;;;;;3.79;47.49;103196.09;7393125;19;20002;-69
2023/01/21 08:01:09;;;;;;;37.35;18.58;;;;;;;3.84;47.37;103198.91;7392869;19;19998;-69
2023/01/21 08:03:36;;;;;;;41.03;18.92;;;;;;;3.86;47.27;103196.78;7393894;19;19987;-68
2023/01/21 08:06:02;;;;;;;35.40;18.75;;;;;;;4.01;47.18;103207.09;7394537;19;20002;-65
2023/01/21 08:08:28;;;;;;;39.15;18.33;;;;;;;4.13;46.93;103209.78;7392695;19;20490;-65
2023/01/21 08:10:54;;;;;;;35.40;18.60;;;;;;;4.09;46.95;103207.56;7393843;19;20004;-65
2023/01/21 08:13:21;;;;;;;36.55;19.15;;;;;;;4.15;46.69;103210.34;7393401;19;20009;-65
2023/01/21 08:15:55;;;;;;;36.38;18.70;;;;;;;4.03;46.95;103216.59;7393471;19;19994;-69
2023/01/21 08:18:22;;;;;;;37.30;18.17;;;;;;;4.11;46.91;103234.34;7392403;19;20006;-69
2023/01/21 08:20:53;;;;;;;38.53;18.83;;;;;;;4.06;46.78;103235.06;7393041;19;20019;-65
2023/01/21 08:23:19;;;;;;;40.05;19.23;;;;;;;4.00;47.02;103233.28;7392193;19;20021;-66
2023/01/21 08:25:44;;;;;;;37.42;18.40;;;;;;;3.98;47.23;103238.13;7393495;19;20002;-66
2023/01/21 08:28:10;;;;;;;37.22;18.63;;;;;;;3.98;47.16;103243.50;7392162;19;19997;-66
2023/01/21 08:30:36;;;;;;;34.70;18.77;;;;;;;3.90;47.27;103250.13;7391938;19;20074;-66
2023/01/21 08:33:02;;;;;;;38.55;19.33;;;;;;;3.79;47.42;103245.53;7392939;19;20003;-65
2023/01/21 08:35:28;;;;;;;32.60;17.75;;;;;;;3.86;47.13;103246.22;7392882;19;19998;-64
2023/01/21 08:38:10;;;;;;;35.47;17.70;;;;;;;3.93;47.21;103259.63;7391993;19;20459;-69
2023/01/21 08:40:45;;;;;;;35.75;18.50;;;;;;;3.84;47.07;103258.34;7390505;19;20018;-66
2023/01/21 08:43:11;;;;;;;36.65;17.95;;;;;;;3.75;47.20;103265.94;7392362;19;20006;-67
2023/01/21 08:45:36;;;;;;;33.15;17.65;;;;;;;3.67;47.42;103275.25;7392327;19;20031;-66
2023/01/21 08:48:03;;;;;;;36.85;18.27;;;;;;;3.63;47.72;103268.66;7392134;19;20021;-68
2023/01/21 08:50:28;;;;;;;34.17;17.60;;;;;;;3.61;47.78;103276.16;7390940;19;20005;-67
2023/01/21 08:52:55;;;;;;;33.97;17.58;;;;;;;3.68;47.73;103279.56;7393027;19;20060;-67
2023/01/21 08:55:25;;;;;;;39.90;19.25;;;;;;;3.73;47.65;103281.59;7392612;19;20007;-67
2023/01/21 08:57:53;;;;;;;40.42;19.05;;;;;;;3.92;47.40;103281.47;7390954;19;19998;-67
2023/01/21 09:00:20;;;;;;;41.92;19.00;;;;;;;3.80;47.64;103286.88;7388352;19;20013;-67
2023/01/21 09:02:46;;;;;;;41.55;19.60;;;;;;;3.87;47.63;103291.13;7391797;19;20014;-67
2023/01/21 09:05:11;;;;;;;38.83;18.85;;;;;;;3.96;47.60;103296.19;7392333;19;20010;-67
2023/01/21 09:07:37;;;;;;;38.88;18.92;;;;;;;3.93;47.52;103294.75;7387602;19;20024;-68
2023/01/21 09:10:04;;;;;;;40.42;18.77;;;;;;;4.00;47.52;103287.34;7390000;19;20007;-67
2023/01/21 09:12:30;;;;;;;37.05;19.42;;;;;;;4.01;47.49;103296.28;7391467;19;19995;-67
2023/01/21 09:14:56;;;;;;;40.22;19.98;;;;;;;4.08;47.50;103289.69;7390804;19;19999;-68
2023/01/21 09:17:22;;;;;;;38.22;19.55;;;;;;;3.98;47.67;103288.66;7390744;19;20066;-67
2023/01/21 09:19:48;;;;;;;39.15;18.38;;;;;;;3.99;47.83;103293.81;7389848;19;20066;-67
2023/01/21 09:22:14;;;;;;;41.88;20.00;;;;;;;4.08;47.54;103294.28;7389902;19;20006;-67
2023/01/21 09:24:40;;;;;;;41.92;19.52;;;;;;;4.15;47.57;103291.44;7390393;19;19998;-66
2023/01/21 09:27:07;;;;;;;42.13;20.13;;;;;;;3.98;48.04;103294.06;7390910;19;20557;-67
2023/01/21 09:29:46;;;;;;;43.45;18.95;;;;;;;4.21;47.68;103295.94;7388647;19;20018;-65
2023/01/21 09:32:12;;;;;;;44.25;20.35;;;;;;;4.04;48.05;103302.03;7391149;19;20018;-68
2023/01/21 09:34:37;;;;;;;40.50;19.92;;;;;;;3.97;48.11;103309.44;7391015;19;20038;-66
2023/01/21 09:37:03;;;;;;;41.65;19.50;;;;;;;4.03;48.33;103313.09;7389741;19;20002;-67
2023/01/21 09:39:29;;;;;;;40.08;20.25;;;;;;;4.05;48.19;103319.91;7389148;19;20475;-67
2023/01/21 09:41:56;;;;;;;41.28;18.83;;;;;;;4.11;48.21;103320.84;7388976;19;20038;-67
2023/01/21 09:44:34;;;;;;;40.80;19.92;;;;;;;4.16;48.17;103329.06;7390804;19;20046;-67
2023/01/21 09:47:18;;;;;;;44.92;19.50;;;;;;;4.21;48.23;103344.59;7389177;19;20483;-67
2023/01/21 09:49:59;;;;;;;50.25;21.92;;;;;;;4.07;48.50;103343.97;7389290;19;20081;-67
2023/01/21 09:52:36;;;;;;;45.78;20.45;;;;;;;4.09;48.48;103344.59;7389770;19;20030;-66
2023/01/21 09:55:05;;;;;;;44.08;20.00;;;;;;;3.99;48.68;103347.06;7388493;19;20014;-67
2023/01/21 09:57:50;;;;;;;45.92;19.60;;;;;;;3.94;49.15;103352.31;7389135;19;20014;-67
2023/01/21 10:00:24;;;;;;;40.53;19.63;;;;;;;4.04;48.70;103349.88;7388676;19;20070;-67
2023/01/21 10:03:04;;;;;;;42.97;19.00;;;;;;;3.99;48.75;103361.38;7389753;19;20009;-67
2023/01/21 10:05:37;;;;;;;39.40;19.52;;;;;;;4.05;48.64;103352.34;7388287;19;20006;-67
2023/01/21 10:08:35;;;;;;;38.15;18.73;;;;;;;4.00;48.89;103357.59;7389178;19;20006;-67
2023/01/21 10:11:14;;;;;;;37.70;18.98;;;;;;;4.03;48.67;103350.91;7397895;19;20033;-67
2023/01/21 10:13:52;;;;;;;37.90;18.13;;;;;;;3.97;48.80;103360.78;7370019;19;20878;-67
2023/01/21 10:16:27;;;;;;;39.28;18.45;;;;;;;4.13;48.54;103366.56;7396717;19;20349;-67
2023/01/21 10:18:56;;;;;;;41.78;19.60;;;;;;;4.08;48.61;103365.38;7394770;19;20013;-69
2023/01/21 10:21:34;;;;;;;36.88;18.73;;;;;;;4.23;48.47;103358.69;7395595;19;20477;-68
2023/01/21 10:24:11;;;;;;;36.83;17.58;;;;;;;4.20;48.42;103364.56;7396866;19;19998;-67
2023/01/21 10:26:36;;;;;;;41.13;18.52;;;;;;;3.97;48.95;103370.75;7396042;19;20470;-67
2023/01/21 10:29:02;;;;;;;40.78;18.50;;;;;;;4.03;48.90;103362.53;7394757;19;20022;-67
2023/01/21 10:31:36;;;;;;;37.78;18.05;;;;;;;4.04;48.81;103358.81;7393749;19;20002;-67
2023/01/21 10:34:11;;;;;;;38.95;17.40;;;;;;;4.12;48.66;103356.78;7395066;19;20328;-68
2023/01/21 10:37:03;;;;;;;38.42;18.25;;;;;;;4.27;48.37;103359.84;7396794;19;19998;-67
2023/01/21 10:39:49;;;;;;;39.53;19.23;;;;;;;4.37;48.29;103349.28;7395272;19;20009;-67
2023/01/21 10:42:29;;;;;;;42.20;19.83;;;;;;;4.48;48.01;103352.22;7393808;19;19998;-67
2023/01/21 10:45:08;;;;;;;39.03;17.88;;;;;;;4.39;48.29;103355.28;7395993;19;20348;-68
2023/01/21 10:48:01;;;;;;;37.35;17.80;;;;;;;4.22;48.58;103357.88;7396050;19;20010;-67
2023/01/21 10:50:54;;;;;;;38.38;18.98;;;;;;;4.29;48.34;103365.88;7393773;19;20005;-69
2023/01/21 10:53:32;;;;;;;43.20;19.38;;;;;;;3.97;49.53;103387.81;7396174;19;20002;-70
2023/01/21 10:56:16;;;;;;;40.28;18.42;;;;;;;4.21;48.84;103379.72;7393915;19;19998;-70
2023/01/21 10:58:47;;;;;;;39.35;19.58;;;;;;;4.32;48.25;103381.63;7392874;19;20416;-70
2023/01/21 11:01:29;;;;;;;37.42;18.83;;;;;;;4.04;48.80;103390.41;7393902;19;20078;-70
2023/01/21 11:03:59;;;;;;;38.85;19.65;;;;;;;4.20;48.31;103383.47;7396205;19;19998;-69
2023/01/21 11:06:29;;;;;;;41.13;19.33;;;;;;;4.09;48.57;103385.94;7395089;19;20004;-70
2023/01/21 11:08:58;;;;;;;36.63;18.20;;;;;;;4.19;48.40;103384.56;7394050;19;20002;-70
2023/01/21 11:11:28;;;;;;;38.65;18.02;;;;;;;4.17;48.37;103381.25;7395144;19;20073;-70
2023/01/21 11:13:54;;;;;;;40.28;19.05;;;;;;;4.13;48.45;103377.38;7395851;19;20025;-70
2023/01/21 11:16:45;;;;;;;40.38;18.25;;;;;;;4.08;48.69;103380.78;7394942;19;20006;-69
2023/01/21 11:19:14;;;;;;;39.10;18.55;;;;;;;4.14;48.66;103376.31;7393135;19;20423;-70
2023/01/21 11:21:55;;;;;;;39.40;18.83;;;;;;;4.21;48.15;103372.44;7392230;19;20023;-71
2023/01/21 11:24:23;;;;;;;40.92;19.05;;;;;;;3.99;48.68;103369.50;7395486;19;20003;-69
2023/01/21 11:26:54;;;;;;;39.97;18.50;;;;;;;4.12;48.43;103373.00;7394354;19;19995;-69
2023/01/21 11:29:22;;;;;;;36.47;17.90;;;;;;;4.08;48.50;103368.06;7392441;19;20009;-70
2023/01/21 11:32:03;;;;;;;38.55;18.35;;;;;;;4.21;48.39;103367.03;7394248;19;20002;-70